AirNav   Everest Fuels
 
 1567 users online  

04WA Ox Meadows Airport
Spokane, Washington, USA

GOING TO SPOKANE?


FAA INFORMATION EFFECTIVE 04 NOVEMBER 2021

Location

FAA Identifier: 04WA
Lat/Long: 47-34-54.6100N 117-26-13.7490W
47-34.910167N 117-26.229150W
47.5818361,-117.4371525
(estimated)
Elevation: 2345 ft. / 715 m (estimated)
Variation: 19E (1985)
From city: 6 miles S of SPOKANE, WA
Time zone: UTC -7 (UTC -8 during Standard Time)
Zip code: 99224

Airport Operations

Airport use: Private use. Permission required prior to landing
Activation date: 08/1957
Control tower: no
ARTCC: SEATTLE CENTER
FSS: SEATTLE FLIGHT SERVICE STATION
Attendance: UNATNDD
Wind indicator: yes
Segmented circle: no

Airport Communications

WX ASOS at GEG (5 nm NW): PHONE 509-742-2544
WX ASOS at SFF (8 nm NE): 120.55 (509-535-3290)

Nearby radio navigation aids

VOR radial/distance  VOR name  Freq  Var
GEGr061/7.7SPOKANE VORTAC115.5021E
COEr226/27.4COEUR D'ALENE VOR/DME108.8019E

 
NDB name  Hdg/Dist  Freq  Var  ID
DEER PARK165/23.236516EDPY -.. .--. -.--

Airport Services

Airframe service: MINOR
Powerplant service: MINOR

Runway Information

Runway N/S

Dimensions: 1800 x 60 ft. / 549 x 18 m
Surface: turf
RUNWAY N  RUNWAY S
Traffic pattern: leftleft
Obstructions: trees
PWR LINES PARALLEL TO RWY.
trees

Airport Ownership and Management from official FAA records

Ownership: Privately-owned
Owner: CHARLES A. STEELE
7824 CEDAR RD
SPOKANE, WA 99224
Phone 509-991-0230
Manager: CHARLES A. STEELE
7824 CEDAR RD
SPOKANE, WA 99224
Phone 509-991-0230

Airport Operational Statistics

Aircraft based on the field: 14
Single engine airplanes: 14
    

Additional Remarks

FOR CD CTC SPOKANE APCH AT 509-742-2522

Instrument Procedures

There are no published instrument procedures at 04WA.

Some nearby airports with instrument procedures:

KGEG - Spokane International Airport (5 nm NW)
KSFF - Felts Field Airport (8 nm NE)
KSKA - Fairchild Air Force Base (9 nm W)
KDEW - Deer Park Airport (23 nm N)
KCOE - Coeur d'Alene Airport - Pappy Boyington Field (27 nm NE)
 
Loc | Ops | Rwys | IFR | FBO | Links
Com | Nav | Svcs | Stats | Notes
Area around 04WA (Ox Meadows Airport)
 
Road maps at: MapQuest Bing Google
 
Aerial photo
No photo
 
Sectional chart

 
Airport distance calculator
Flying to Ox Meadows Airport? Find the distance to fly.

From to 04WA

Sunrise and sunset
Times for 29-Nov-2021
 Local
(UTC-8)
 Zulu
(UTC)
Morning civil twilight06:4114:41
Sunrise07:1615:16
Sunset16:0100:01
Evening civil twilight16:3600:36

Current date and time
Zulu (UTC)  30-Nov-2021 01:13:46
Local (UTC-8)  29-Nov-2021 17:13:46
 
METAR
KGEG 
4nm NW 
300053Z 19008KT 10SM FEW020 FEW030 FEW160 09/07 A3025 RMK AO2 SLP250 T00890067
KSFF 
8nm NE 
300100Z 00000KT 10SM FEW017 SCT027 10/07 A3026 RMK AO2 T01000072
KSKA 
9nm W 
300058Z 15005KT 10SM CLR 08/08 A3023 RMK AO2A SLP250 T00790078 $
TAF
KGEG 
4nm NW 
291737Z 2918/3018 19004KT P6SM VCSH BKN010 OVC120 FM292100 24009KT P6SM BKN030 FM300200 19008KT P6SM BKN020 FM300900 18008KT P6SM OVC250 FM301600 20010KT P6SM OVC020
KSFF 
8nm NE 
291737Z 2918/3018 VRB04KT P6SM VCSH BKN015 FM292100 23006KT P6SM SCT025 BKN040 FM300200 21005KT P6SM BKN025 FM300900 18008KT P6SM OVC250 FM301600 20010KT P6SM OVC020
KSKA 
9nm W 
291900Z 2919/0101 20012KT 9999 SCT010 BKN080 620804 QNH3017INS BECMG 3000/3001 19009KT 9999 BKN008 OVC025 620405 QNH3023INS BECMG 3008/3009 20012KT 9999 FEW008 BKN025 OVC160 QNH3010INS BECMG 3015/3016 20012G20KT 9999 VCSH OVC012 620806 QNH3006INS TX10/2923Z TN06/3011Z
NOTAMs
Click for the latest NOTAMs
NOTAMs are issued by the DoD/FAA and will open in a separate window not controlled by AirNav.

 

 
 

Would you like to see your business listed on this page?

 If your business provides an interesting product or service to pilots, flight crews, aircraft, or users of the Ox Meadows Airport, you should consider listing it here.  To start the listing process, click on the button below
 
Add a business
 

Other Pages about Ox Meadows Airport

Update a link
 
Copyright © AirNav, LLC. All rights reserved. Privacy Policy  Contact